createdAt,value
2022-12-04T00:00:55.692Z,7.30
2022-12-04T00:01:58.997Z,8.52
2022-12-04T00:03:02.592Z,7.28
2022-12-04T00:04:06.843Z,8.88
2022-12-04T00:05:10.085Z,9.63
2022-12-04T00:06:15.235Z,7.35
2022-12-04T00:07:17.419Z,7.43
2022-12-04T00:08:20.603Z,7.43
2022-12-04T00:09:23.414Z,6.72
2022-12-04T00:10:26.552Z,7.67
2022-12-04T00:11:30.470Z,10.48
2022-12-04T00:12:35.553Z,8.50
2022-12-04T00:13:38.687Z,12.95
2022-12-04T00:15:22.964Z,8.75
2022-12-04T00:16:06.110Z,7.80
2022-12-04T00:17:08.303Z,10.27
2022-12-04T00:18:13.261Z,10.23
2022-12-04T00:19:15.375Z,8.73
2022-12-04T00:20:18.715Z,10.00
2022-12-04T00:21:22.729Z,9.43
2022-12-04T00:22:24.919Z,8.57
2022-12-04T00:23:28.112Z,10.68
2022-12-04T00:24:31.432Z,9.10
2022-12-04T00:25:39.302Z,9.02
2022-12-04T00:26:44.499Z,9.98
2022-12-04T00:27:46.663Z,9.63
2022-12-04T00:28:50.928Z,10.13
2022-12-04T00:29:53.212Z,8.40
2022-12-04T00:30:57.039Z,8.35
2022-12-04T00:31:59.310Z,10.33
2022-12-04T00:33:02.945Z,7.80
2022-12-04T00:34:08.275Z,7.93
2022-12-04T00:35:11.632Z,7.28
2022-12-04T00:36:16.191Z,8.93
2022-12-04T00:37:19.636Z,10.82
2022-12-04T00:38:21.961Z,9.55
2022-12-04T00:39:25.148Z,10.02
2022-12-04T00:40:27.282Z,10.05
2022-12-04T00:41:32.272Z,9.10
2022-12-04T00:42:34.623Z,9.07
2022-12-04T00:43:37.843Z,9.45
2022-12-04T00:44:41.026Z,11.27
2022-12-04T00:45:43.619Z,10.07
2022-12-04T00:46:46.944Z,12.18
2022-12-04T00:47:49.092Z,9.63
2022-12-04T00:48:52.715Z,9.88
2022-12-04T00:49:56.896Z,10.80
2022-12-04T00:51:03.859Z,8.27
2022-12-04T00:52:06.112Z,11.32
2022-12-04T00:53:09.486Z,9.90
2022-12-04T00:54:13.092Z,9.38
2022-12-04T00:55:15.508Z,7.45
2022-12-04T00:56:21.328Z,10.73
2022-12-04T00:57:23.630Z,10.18
2022-12-04T00:58:26.995Z,8.20
2022-12-04T00:59:30.461Z,9.13
2022-12-04T01:00:32.740Z,9.18
2022-12-04T01:01:35.998Z,9.40
2022-12-04T01:02:38.287Z,11.05
2022-12-04T01:03:42.237Z,12.83
2022-12-04T01:04:44.981Z,12.82
2022-12-04T01:05:49.576Z,12.73
2022-12-04T01:06:51.863Z,13.48
2022-12-04T01:07:55.559Z,8.02
2022-12-04T01:08:58.834Z,9.45
2022-12-04T01:10:02.354Z,13.02
2022-12-04T01:11:06.682Z,12.77
2022-12-04T01:12:09.858Z,12.40
2022-12-04T01:13:12.086Z,13.57
2022-12-04T01:14:15.361Z,13.30
2022-12-04T01:15:17.699Z,12.85
2022-12-04T01:16:23.270Z,11.90
2022-12-04T01:17:25.776Z,14.20
2022-12-04T01:18:29.114Z,14.70
2022-12-04T01:19:31.448Z,11.02
2022-12-04T01:20:35.114Z,11.13
2022-12-04T01:21:39.503Z,11.75
2022-12-04T01:22:42.818Z,12.75
2022-12-04T01:23:45.482Z,11.63
2022-12-04T01:24:48.744Z,9.43
2022-12-04T01:25:52.525Z,8.32
2022-12-04T01:26:55.924Z,5.85
2022-12-04T01:27:58.475Z,5.68
2022-12-04T01:29:02.388Z,10.57
2022-12-04T01:30:05.929Z,14.00
2022-12-04T01:31:11.526Z,11.25
2022-12-04T01:32:14.016Z,11.73
2022-12-04T01:33:17.420Z,9.20
2022-12-04T01:34:20.756Z,10.55
2022-12-04T01:35:23.010Z,8.00
2022-12-04T01:36:29.265Z,7.95
2022-12-04T01:37:33.307Z,5.05
2022-12-04T01:38:37.711Z,8.27
2022-12-04T01:39:39.864Z,9.60
2022-12-04T01:40:45.801Z,5.10
2022-12-04T01:41:48.037Z,6.43
2022-12-04T01:42:51.210Z,4.13
2022-12-04T01:44:15.234Z,7.45
2022-12-04T01:45:38.923Z,6.15
2022-12-04T01:46:43.720Z,5.57
2022-12-04T01:47:46.198Z,4.97
2022-12-04T01:48:53.871Z,6.25
2022-12-04T01:49:56.910Z,8.07
2022-12-04T01:51:06.730Z,4.93
2022-12-04T01:52:14.756Z,4.50
2022-12-04T01:53:20.369Z,6.97
2022-12-04T01:54:28.549Z,4.68
2022-12-04T01:55:32.886Z,5.65
2022-12-04T01:56:41.197Z,7.80
2022-12-04T01:57:46.066Z,13.63
2022-12-04T01:58:53.213Z,7.07
2022-12-04T02:00:00.319Z,12.77
2022-12-04T02:01:08.893Z,6.85
2022-12-04T02:02:15.567Z,7.50
2022-12-04T02:03:18.211Z,8.02
2022-12-04T02:04:21.787Z,8.68
2022-12-04T02:05:24.200Z,6.72
2022-12-04T02:06:27.485Z,6.28
2022-12-04T02:07:30.133Z,5.80
2022-12-04T02:08:37.346Z,5.33
2022-12-04T02:09:41.458Z,6.72
2022-12-04T02:10:54.810Z,5.68
2022-12-04T02:12:08.051Z,6.22
2022-12-04T02:13:19.187Z,6.80
2022-12-04T02:14:32.338Z,18.98
2022-12-04T02:15:39.696Z,15.50
2022-12-04T02:16:52.510Z,22.15
2022-12-04T02:18:00.213Z,14.65
2022-12-04T02:19:21.215Z,30.33
2022-12-04T02:20:32.538Z,24.27
2022-12-04T02:21:38.899Z,22.67
2022-12-04T02:23:11.780Z,17.55
2022-12-04T02:24:34.432Z,13.10
2022-12-04T02:25:43.800Z,11.82
2022-12-04T02:26:52.559Z,10.68
2022-12-04T02:28:03.711Z,18.02
2022-12-04T02:29:11.898Z,15.80
2022-12-04T02:30:15.577Z,12.70
2022-12-04T02:31:23.226Z,12.40
2022-12-04T02:32:36.237Z,11.80
2022-12-04T02:33:45.998Z,12.48
2022-12-04T02:34:56.032Z,12.82
2022-12-04T02:36:06.704Z,11.73
2022-12-04T02:37:13.027Z,11.40
2022-12-04T02:38:22.974Z,8.02
2022-12-04T02:39:34.715Z,8.23
2022-12-04T02:40:43.523Z,6.00
2022-12-04T02:41:50.024Z,6.47
2022-12-04T02:43:01.125Z,8.75
2022-12-04T02:44:11.368Z,9.70
2022-12-04T02:45:18.661Z,7.00
2022-12-04T02:46:25.740Z,7.28
2022-12-04T02:47:29.595Z,7.40
2022-12-04T02:48:35.747Z,7.85
2022-12-04T02:49:43.698Z,6.90
2022-12-04T02:50:51.164Z,7.10
2022-12-04T02:51:58.055Z,5.63
2022-12-04T02:53:05.627Z,7.55
2022-12-04T02:54:14.075Z,6.68
2022-12-04T02:55:26.524Z,5.03
2022-12-04T02:56:33.543Z,7.88
2022-12-04T02:57:40.727Z,9.38
2022-12-04T02:58:48.469Z,10.52
2022-12-04T02:59:54.383Z,9.13
2022-12-04T03:01:00.961Z,9.10
2022-12-04T03:02:09.364Z,5.68
2022-12-04T03:03:18.796Z,7.53
2022-12-04T03:04:24.748Z,7.93
2022-12-04T03:05:36.916Z,6.22
2022-12-04T03:06:42.312Z,8.37
2022-12-04T03:07:50.444Z,9.15
2022-12-04T03:08:57.833Z,9.75
2022-12-04T03:10:04.534Z,8.02
2022-12-04T03:11:07.130Z,9.50
2022-12-04T03:12:15.787Z,8.25
2022-12-04T03:13:21.410Z,14.30
2022-12-04T03:14:29.535Z,14.75
2022-12-04T03:15:37.781Z,12.65
2022-12-04T03:16:42.808Z,11.43
2022-12-04T03:17:51.476Z,12.13
2022-12-04T03:19:00.627Z,13.63
2022-12-04T03:20:08.219Z,10.88
2022-12-04T03:21:16.000Z,10.65
2022-12-04T03:22:22.139Z,8.40
2022-12-04T03:23:29.862Z,11.07
2022-12-04T03:24:36.503Z,9.65
2022-12-04T03:25:47.519Z,9.10
2022-12-04T03:26:55.760Z,13.13
2022-12-04T03:28:03.595Z,14.88
2022-12-04T03:29:12.337Z,8.37
2022-12-04T03:30:19.036Z,10.20
2022-12-04T03:31:31.116Z,7.57
2022-12-04T03:32:40.809Z,10.05
2022-12-04T03:33:47.898Z,10.32
2022-12-04T03:34:59.244Z,8.65
2022-12-04T03:36:10.133Z,9.52
2022-12-04T03:37:18.889Z,10.88
2022-12-04T03:38:28.800Z,13.35
2022-12-04T03:39:38.167Z,9.18
2022-12-04T03:40:45.188Z,8.43
2022-12-04T03:41:58.595Z,9.15
2022-12-04T03:43:04.576Z,9.05
2022-12-04T03:44:14.332Z,6.85
2022-12-04T03:45:22.789Z,8.13
2022-12-04T03:46:33.051Z,10.48
2022-12-04T03:47:39.248Z,8.98
2022-12-04T03:48:46.357Z,8.18
2022-12-04T03:49:53.689Z,11.10
2022-12-04T03:51:05.164Z,6.93
2022-12-04T03:52:13.909Z,10.70
2022-12-04T03:53:21.668Z,7.00
2022-12-04T03:54:29.659Z,8.77
2022-12-04T03:55:40.780Z,10.45
2022-12-04T03:56:47.824Z,9.20
2022-12-04T03:57:53.311Z,10.68
2022-12-04T03:59:00.218Z,11.20
2022-12-04T04:00:07.803Z,11.40
2022-12-04T04:01:11.948Z,9.68
2022-12-04T04:02:21.536Z,9.68
2022-12-04T04:03:28.712Z,8.87
2022-12-04T04:04:35.911Z,11.55
2022-12-04T04:05:41.656Z,10.68
2022-12-04T04:06:50.078Z,7.80
2022-12-04T04:07:56.636Z,9.93
2022-12-04T04:09:06.436Z,9.27
2022-12-04T04:10:16.821Z,7.80
2022-12-04T04:11:24.804Z,9.45
2022-12-04T04:12:31.472Z,7.80
2022-12-04T04:13:58.226Z,9.10
2022-12-04T04:15:25.266Z,6.47
2022-12-04T04:16:49.940Z,7.25
2022-12-04T04:18:14.042Z,7.15
2022-12-04T04:19:37.768Z,8.77
2022-12-04T04:21:02.500Z,8.55
2022-12-04T04:22:28.155Z,6.35
2022-12-04T04:23:55.036Z,8.52
2022-12-04T04:25:04.216Z,7.25
2022-12-04T04:26:09.114Z,8.38
2022-12-04T04:27:12.416Z,10.75
2022-12-04T04:28:29.798Z,6.00
2022-12-04T04:29:33.205Z,7.55
2022-12-04T04:30:36.184Z,7.90
2022-12-04T04:31:44.245Z,7.32
2022-12-04T04:32:53.684Z,10.50
2022-12-04T04:34:05.896Z,7.30
2022-12-04T04:35:17.347Z,7.50
2022-12-04T04:36:32.211Z,5.13
2022-12-04T04:37:41.819Z,7.57
2022-12-04T04:38:48.799Z,6.30
2022-12-04T04:39:57.884Z,9.00
2022-12-04T04:41:10.360Z,7.55
2022-12-04T04:42:19.282Z,8.55
2022-12-04T04:43:26.120Z,15.63
2022-12-04T04:44:34.776Z,14.15
2022-12-04T04:45:41.365Z,11.38
2022-12-04T04:46:49.457Z,6.60
2022-12-04T04:47:56.815Z,9.30
2022-12-04T04:49:05.288Z,7.55
2022-12-04T04:50:11.091Z,11.45
2022-12-04T04:51:15.026Z,9.17
2022-12-04T04:52:20.478Z,8.27
2022-12-04T04:53:30.006Z,6.40
2022-12-04T04:54:34.123Z,6.32
2022-12-04T04:55:38.216Z,7.07
2022-12-04T04:56:41.855Z,7.18
2022-12-04T04:57:45.289Z,6.82
2022-12-04T04:58:47.541Z,6.70
2022-12-04T04:59:50.826Z,9.55
2022-12-04T05:00:58.228Z,11.38
2022-12-04T05:02:01.759Z,7.30
2022-12-04T05:03:04.166Z,9.32
2022-12-04T05:04:09.694Z,8.38
2022-12-04T05:05:12.812Z,8.73
2022-12-04T05:06:16.273Z,8.55
2022-12-04T05:07:18.596Z,6.05
2022-12-04T05:08:22.375Z,6.35
2022-12-04T05:09:24.634Z,10.00
2022-12-04T05:10:27.808Z,9.40
2022-12-04T05:11:30.291Z,10.00
2022-12-04T05:12:33.782Z,8.63
2022-12-04T05:13:35.967Z,7.57
2022-12-04T05:14:39.315Z,7.03
2022-12-04T05:15:42.048Z,7.60
2022-12-04T05:16:45.631Z,8.38
2022-12-04T05:17:48.275Z,8.00
2022-12-04T05:19:05.371Z,8.43
2022-12-04T05:20:12.265Z,7.75
2022-12-04T05:21:16.330Z,6.28
2022-12-04T05:22:20.008Z,7.68
2022-12-04T05:23:22.319Z,9.17
2022-12-04T05:24:25.670Z,8.13
2022-12-04T05:25:28.047Z,6.88
2022-12-04T05:26:31.311Z,7.38
2022-12-04T05:27:34.815Z,6.45
2022-12-04T05:28:37.045Z,7.05
2022-12-04T05:29:40.372Z,7.97
2022-12-04T05:30:43.144Z,7.18
2022-12-04T05:31:46.531Z,7.00
2022-12-04T05:32:48.773Z,8.60
2022-12-04T05:33:51.993Z,7.20
2022-12-04T05:34:56.116Z,7.85
2022-12-04T05:36:02.907Z,7.05
2022-12-04T05:37:05.220Z,6.80
2022-12-04T05:38:08.374Z,6.22
2022-12-04T05:39:10.787Z,6.68
2022-12-04T05:40:14.337Z,5.53
2022-12-04T05:41:16.937Z,7.03
2022-12-04T05:42:20.256Z,8.63
2022-12-04T05:43:22.990Z,5.85
2022-12-04T05:44:26.421Z,5.67
2022-12-04T05:45:28.974Z,7.05
2022-12-04T05:46:32.255Z,6.70
2022-12-04T05:47:38.660Z,5.82
2022-12-04T05:48:41.948Z,7.22
2022-12-04T05:49:44.209Z,5.20
2022-12-04T05:50:47.604Z,7.43
2022-12-04T05:51:51.968Z,8.30
2022-12-04T05:52:55.087Z,7.05
2022-12-04T05:53:57.263Z,6.15
2022-12-04T05:55:00.553Z,6.27
2022-12-04T05:56:04.997Z,7.47
2022-12-04T05:57:08.708Z,5.40
2022-12-04T05:58:10.941Z,11.23
2022-12-04T05:59:14.676Z,5.00
2022-12-04T06:00:18.297Z,6.00
2022-12-04T06:01:24.058Z,4.22
2022-12-04T06:02:27.370Z,6.55
2022-12-04T06:03:29.755Z,6.50
2022-12-04T06:04:32.936Z,5.82
2022-12-04T06:05:35.101Z,7.20
2022-12-04T06:06:39.154Z,6.55
2022-12-04T06:07:43.275Z,5.35
2022-12-04T06:08:46.465Z,6.22
2022-12-04T06:09:48.628Z,6.05
2022-12-04T06:10:51.712Z,5.10
2022-12-04T06:11:58.205Z,6.57
2022-12-04T06:13:01.527Z,5.78
2022-12-04T06:14:06.307Z,7.18
2022-12-04T06:15:10.181Z,8.35
2022-12-04T06:16:14.787Z,7.53
2022-12-04T06:17:18.120Z,6.43
2022-12-04T06:18:20.357Z,6.80
2022-12-04T06:19:24.824Z,6.20
2022-12-04T06:20:27.226Z,7.68
2022-12-04T06:21:33.301Z,6.30
2022-12-04T06:22:35.453Z,5.45
2022-12-04T06:23:40.420Z,7.38
2022-12-04T06:24:43.644Z,6.30
2022-12-04T06:25:45.788Z,6.13
2022-12-04T06:27:18.666Z,6.17
2022-12-04T06:28:12.693Z,8.68
2022-12-04T06:29:15.610Z,7.82
2022-12-04T06:30:18.962Z,5.63
2022-12-04T06:31:21.219Z,5.40
2022-12-04T06:32:24.719Z,5.05
2022-12-04T06:33:26.904Z,8.13
2022-12-04T06:34:30.454Z,6.00
2022-12-04T06:35:32.651Z,5.57
2022-12-04T06:36:36.458Z,8.15
2022-12-04T06:37:38.627Z,5.97
2022-12-04T06:38:43.873Z,6.40
2022-12-04T06:39:46.151Z,6.00
2022-12-04T06:40:49.372Z,6.40
2022-12-04T06:41:52.559Z,6.68
2022-12-04T06:42:54.824Z,4.65
2022-12-04T06:43:58.145Z,5.05
2022-12-04T06:45:01.327Z,6.45
2022-12-04T06:46:06.296Z,5.45
2022-12-04T06:47:10.096Z,5.68
2022-12-04T06:48:12.273Z,5.17
2022-12-04T06:49:15.796Z,5.20
2022-12-04T06:50:18.105Z,5.10
2022-12-04T06:51:23.236Z,5.95
2022-12-04T06:52:25.394Z,3.95
2022-12-04T06:53:30.538Z,5.13
2022-12-04T06:54:34.240Z,5.20
2022-12-04T06:55:37.599Z,5.53
2022-12-04T06:56:40.124Z,5.03
2022-12-04T06:57:43.324Z,3.40
2022-12-04T06:58:45.826Z,4.10
2022-12-04T06:59:49.282Z,5.63
2022-12-04T07:00:51.786Z,4.00
2022-12-04T07:01:55.170Z,5.05
2022-12-04T07:02:57.509Z,4.30
2022-12-04T07:04:03.493Z,4.93
2022-12-04T07:05:06.560Z,3.03
2022-12-04T07:06:17.406Z,4.72
2022-12-04T07:07:20.783Z,5.38
2022-12-04T07:08:22.994Z,4.40
2022-12-04T07:09:26.348Z,4.37
2022-12-04T07:10:30.217Z,3.97
2022-12-04T07:11:34.647Z,4.90
2022-12-04T07:12:36.952Z,4.25
2022-12-04T07:13:40.587Z,4.53
2022-12-04T07:14:42.718Z,4.15
2022-12-04T07:15:46.176Z,5.40
2022-12-04T07:16:48.423Z,4.70
2022-12-04T07:17:51.727Z,4.43
2022-12-04T07:18:54.755Z,6.18
2022-12-04T07:19:58.398Z,6.70
2022-12-04T07:21:00.821Z,5.35
2022-12-04T07:22:04.304Z,6.22
2022-12-04T07:23:07.444Z,5.63
2022-12-04T07:24:15.185Z,6.00
2022-12-04T07:25:17.602Z,5.97
2022-12-04T07:26:22.557Z,6.40
2022-12-04T07:27:25.849Z,6.25
2022-12-04T07:28:28.079Z,4.38
2022-12-04T07:29:32.654Z,6.40
2022-12-04T07:30:37.302Z,7.00
2022-12-04T07:31:40.618Z,4.10
2022-12-04T07:32:42.863Z,5.75
2022-12-04T07:33:46.896Z,6.35
2022-12-04T07:34:49.999Z,5.13
2022-12-04T07:35:55.808Z,5.32
2022-12-04T07:36:59.039Z,4.93
2022-12-04T07:38:01.223Z,5.75
2022-12-04T07:39:05.103Z,4.88
2022-12-04T07:40:08.397Z,4.68
2022-12-04T07:41:13.248Z,5.00
2022-12-04T07:42:22.556Z,5.60
2022-12-04T07:43:27.769Z,4.88
2022-12-04T07:44:32.348Z,5.03
2022-12-04T07:45:34.903Z,4.75
2022-12-04T07:46:38.192Z,5.50
2022-12-04T07:47:40.714Z,5.95
2022-12-04T07:48:44.617Z,6.00
2022-12-04T07:49:46.705Z,6.68
2022-12-04T07:50:50.564Z,5.45
2022-12-04T07:51:52.884Z,7.50
2022-12-04T07:52:56.080Z,4.97
2022-12-04T07:54:03.207Z,7.43
2022-12-04T07:55:08.508Z,5.70
2022-12-04T07:56:11.904Z,6.72
2022-12-04T07:57:15.686Z,6.43
2022-12-04T07:58:19.407Z,8.25
2022-12-04T07:59:22.624Z,5.40
2022-12-04T08:00:24.906Z,7.97
2022-12-04T08:01:28.257Z,6.22
2022-12-04T08:02:30.658Z,8.13
2022-12-04T08:03:33.749Z,8.20
2022-12-04T08:04:38.565Z,9.30
2022-12-04T08:05:40.799Z,7.47
2022-12-04T08:06:44.130Z,6.07
2022-12-04T08:07:46.518Z,7.10
2022-12-04T08:08:50.798Z,7.85
2022-12-04T08:09:53.245Z,6.47
2022-12-04T08:10:56.963Z,6.75
2022-12-04T08:11:59.081Z,8.32
2022-12-04T08:13:02.276Z,6.87
2022-12-04T08:14:08.935Z,8.40
2022-12-04T08:15:12.468Z,7.10
2022-12-04T08:16:15.864Z,6.88
2022-12-04T08:17:19.277Z,6.93
2022-12-04T08:18:21.502Z,8.48
2022-12-04T08:19:24.784Z,6.10
2022-12-04T08:20:26.949Z,7.85
2022-12-04T08:21:31.988Z,6.63
2022-12-04T08:22:34.222Z,7.05
2022-12-04T08:23:40.112Z,7.60
2022-12-04T08:24:42.580Z,6.88
2022-12-04T08:25:45.999Z,7.97
2022-12-04T08:26:48.160Z,8.30
2022-12-04T08:27:51.525Z,8.18
2022-12-04T08:28:54.484Z,8.48
2022-12-04T08:29:59.148Z,6.28
2022-12-04T08:31:05.207Z,6.40
2022-12-04T08:32:08.518Z,6.82
2022-12-04T08:33:11.715Z,5.60
2022-12-04T08:34:15.377Z,7.73
2022-12-04T08:35:17.675Z,8.50
2022-12-04T08:36:22.520Z,6.80
2022-12-04T08:37:27.611Z,5.85
2022-12-04T08:38:30.934Z,5.65
2022-12-04T08:39:33.190Z,5.70
2022-12-04T08:40:36.534Z,6.20
2022-12-04T08:41:38.851Z,6.75
2022-12-04T08:42:42.087Z,5.43
2022-12-04T08:43:45.848Z,5.45
2022-12-04T08:44:49.064Z,6.50
2022-12-04T08:45:57.795Z,5.63
2022-12-04T08:47:01.428Z,5.28
2022-12-04T08:48:04.813Z,4.75
2022-12-04T08:49:08.007Z,6.40
2022-12-04T08:50:10.548Z,5.13
2022-12-04T08:51:15.968Z,5.18
2022-12-04T08:52:19.313Z,4.55
2022-12-04T08:53:23.548Z,5.20
2022-12-04T08:54:29.456Z,4.82
2022-12-04T08:55:35.420Z,5.60
2022-12-04T08:56:38.937Z,5.28
2022-12-04T08:57:41.016Z,6.38
2022-12-04T08:58:44.479Z,7.55
2022-12-04T08:59:47.600Z,8.85
2022-12-04T09:00:50.129Z,9.40
2022-12-04T09:01:55.324Z,9.13
2022-12-04T09:02:57.793Z,9.68
2022-12-04T09:04:01.094Z,8.38
2022-12-04T09:05:03.452Z,6.07
2022-12-04T09:06:08.761Z,6.33
2022-12-04T09:07:11.126Z,6.18
2022-12-04T09:08:15.177Z,7.25
2022-12-04T09:09:18.456Z,6.70
2022-12-04T09:10:20.784Z,7.43
2022-12-04T09:11:26.040Z,7.00
2022-12-04T09:12:29.280Z,8.15
2022-12-04T09:13:31.626Z,9.45
2022-12-04T09:14:34.900Z,6.55
2022-12-04T09:15:39.823Z,7.85
2022-12-04T09:16:43.111Z,7.63
2022-12-04T09:17:47.189Z,7.68
2022-12-04T09:18:50.521Z,12.75
2022-12-04T09:19:55.539Z,7.57
2022-12-04T09:21:04.817Z,7.47
2022-12-04T09:22:07.052Z,7.82
2022-12-04T09:23:10.432Z,6.82
2022-12-04T09:24:12.620Z,7.25
2022-12-04T09:25:15.851Z,9.45
2022-12-04T09:26:22.551Z,7.57
2022-12-04T09:27:25.805Z,7.67
2022-12-04T09:28:29.648Z,8.38
2022-12-04T09:29:33.915Z,8.68
2022-12-04T09:30:37.192Z,7.55
2022-12-04T09:31:40.444Z,9.45
2022-12-04T09:32:42.622Z,6.95
2022-12-04T09:33:47.532Z,7.63
2022-12-04T09:34:52.823Z,8.13
2022-12-04T09:35:55.488Z,9.48
2022-12-04T09:36:58.936Z,9.25
2022-12-04T09:38:01.394Z,8.20
2022-12-04T09:39:05.197Z,9.75
2022-12-04T09:40:09.304Z,8.05
2022-12-04T09:41:35.889Z,13.13
2022-12-04T09:42:47.233Z,9.98
2022-12-04T09:43:55.237Z,13.40
2022-12-04T09:45:04.455Z,9.82
2022-12-04T09:46:11.879Z,12.40
2022-12-04T09:47:23.988Z,12.13
2022-12-04T09:48:33.237Z,8.00
2022-12-04T09:49:43.148Z,12.27
2022-12-04T09:50:47.472Z,11.40
2022-12-04T09:51:53.430Z,10.27
2022-12-04T09:53:00.111Z,12.23
2022-12-04T09:54:07.266Z,7.80
2022-12-04T09:55:15.708Z,11.38
2022-12-04T09:56:21.286Z,10.40
2022-12-04T09:57:29.758Z,9.98
2022-12-04T09:58:41.062Z,6.75
2022-12-04T09:59:46.207Z,7.22
2022-12-04T10:00:51.878Z,9.87
2022-12-04T10:02:00.329Z,7.72
2022-12-04T10:03:06.544Z,7.38
2022-12-04T10:04:10.787Z,5.97
2022-12-04T10:05:21.701Z,6.63
2022-12-04T10:06:26.746Z,6.68
2022-12-04T10:07:34.926Z,6.25
2022-12-04T10:08:41.972Z,7.82
2022-12-04T10:09:50.268Z,6.55
2022-12-04T10:11:05.142Z,7.38
2022-12-04T10:12:17.914Z,11.97
2022-12-04T10:13:51.547Z,11.38
2022-12-04T10:15:08.831Z,6.45
2022-12-04T10:16:18.821Z,8.65
2022-12-04T10:17:36.690Z,7.82
2022-12-04T10:18:48.213Z,8.35
2022-12-04T10:20:01.723Z,6.35
2022-12-04T10:21:30.413Z,8.23
2022-12-04T10:22:43.207Z,8.60
2022-12-04T10:23:56.195Z,10.32
2022-12-04T10:25:05.053Z,6.83
2022-12-04T10:26:14.346Z,8.55
2022-12-04T10:27:23.356Z,10.18
2022-12-04T10:28:29.959Z,10.05
2022-12-04T10:29:37.396Z,7.97
2022-12-04T10:30:44.318Z,8.43
2022-12-04T10:31:48.099Z,9.45
2022-12-04T10:33:02.017Z,7.75
2022-12-04T10:34:13.719Z,9.15
2022-12-04T10:35:23.139Z,9.73
2022-12-04T10:36:30.721Z,6.17
2022-12-04T10:37:39.395Z,6.05
2022-12-04T10:38:47.907Z,6.43
2022-12-04T10:39:57.704Z,8.35
2022-12-04T10:41:07.768Z,7.18
2022-12-04T10:42:25.838Z,7.68
2022-12-04T10:43:35.061Z,5.47
2022-12-04T10:44:38.589Z,6.45
2022-12-04T10:45:41.107Z,5.07
2022-12-04T10:46:46.533Z,7.38
2022-12-04T10:47:53.279Z,5.10
2022-12-04T10:48:59.628Z,4.50
2022-12-04T10:50:06.271Z,4.88
2022-12-04T10:51:16.959Z,5.03
2022-12-04T10:52:20.531Z,5.85
2022-12-04T10:53:30.252Z,5.97
2022-12-04T10:54:35.649Z,5.47
2022-12-04T10:55:39.944Z,4.75
2022-12-04T10:56:52.957Z,4.07
2022-12-04T10:57:56.198Z,6.40
2022-12-04T10:59:00.900Z,6.20
2022-12-04T11:00:06.184Z,6.03
2022-12-04T11:01:11.593Z,6.30
2022-12-04T11:02:21.752Z,5.68
2022-12-04T11:03:27.372Z,5.65
2022-12-04T11:04:35.421Z,5.35
2022-12-04T11:05:43.542Z,4.35
2022-12-04T11:06:46.231Z,5.85
2022-12-04T11:07:54.775Z,5.85
2022-12-04T11:08:58.990Z,4.82
2022-12-04T11:10:07.436Z,6.43
2022-12-04T11:11:13.704Z,4.78
2022-12-04T11:12:21.014Z,6.63
2022-12-04T11:13:23.671Z,6.95
2022-12-04T11:14:26.857Z,6.85
2022-12-04T11:15:30.114Z,6.50
2022-12-04T11:16:40.065Z,8.68
2022-12-04T11:17:42.494Z,5.95
2022-12-04T11:18:49.589Z,5.80
2022-12-04T11:19:59.968Z,5.30
2022-12-04T11:21:07.251Z,5.17
2022-12-04T11:22:13.985Z,5.57
2022-12-04T11:23:19.815Z,5.28
2022-12-04T11:24:27.591Z,5.47
2022-12-04T11:25:35.660Z,4.45
2022-12-04T11:26:43.652Z,6.38
2022-12-04T11:27:49.238Z,5.18
2022-12-04T11:29:01.757Z,5.15
2022-12-04T11:30:11.369Z,4.47
2022-12-04T11:31:19.971Z,3.95
2022-12-04T11:32:26.063Z,5.17
2022-12-04T11:33:35.584Z,4.32
2022-12-04T11:34:41.068Z,4.78
2022-12-04T11:35:44.414Z,4.57
2022-12-04T11:36:53.708Z,5.38
2022-12-04T11:38:00.253Z,5.00
2022-12-04T11:39:15.640Z,3.92
2022-12-04T11:40:20.924Z,5.97
2022-12-04T11:41:29.664Z,3.90
2022-12-04T11:42:33.431Z,3.95
2022-12-04T11:43:38.025Z,4.10
2022-12-04T11:44:50.715Z,5.38
2022-12-04T11:45:58.065Z,4.90
2022-12-04T11:47:05.609Z,5.10
2022-12-04T11:48:17.044Z,6.53
2022-12-04T11:49:22.311Z,4.57
2022-12-04T11:50:34.998Z,5.40
2022-12-04T11:51:48.795Z,3.80
2022-12-04T11:53:04.837Z,4.80
2022-12-04T11:54:21.529Z,3.92
2022-12-04T11:55:29.662Z,6.63
2022-12-04T11:56:36.900Z,5.30
2022-12-04T11:57:48.861Z,7.90
2022-12-04T11:59:05.670Z,7.25
2022-12-04T12:00:16.506Z,6.72
2022-12-04T12:01:36.016Z,7.78
2022-12-04T12:03:03.170Z,9.68
2022-12-04T12:04:25.476Z,11.27
2022-12-04T12:05:45.011Z,10.35
2022-12-04T12:07:02.531Z,7.20
2022-12-04T12:08:16.178Z,6.57
2022-12-04T12:09:29.474Z,5.75
2022-12-04T12:10:44.468Z,6.72
2022-12-04T12:11:55.183Z,5.72
2022-12-04T12:13:07.005Z,6.00
2022-12-04T12:14:21.305Z,6.63
2022-12-04T12:15:41.044Z,7.25
2022-12-04T12:16:55.908Z,8.57
2022-12-04T12:18:19.136Z,7.93
2022-12-04T12:19:48.097Z,9.45
2022-12-04T12:21:02.520Z,6.87
2022-12-04T12:22:15.894Z,14.88
2022-12-04T12:23:32.542Z,11.85
2022-12-04T12:24:51.299Z,13.25
2022-12-04T12:26:00.167Z,9.40
2022-12-04T12:27:19.668Z,6.07
2022-12-04T12:28:38.222Z,8.68
2022-12-04T12:29:57.296Z,7.78
2022-12-04T12:31:21.193Z,18.30
2022-12-04T12:33:02.762Z,18.63
2022-12-04T12:34:13.072Z,8.57
2022-12-04T12:35:23.810Z,9.20
2022-12-04T12:36:30.897Z,7.60
2022-12-04T12:37:40.146Z,6.55
2022-12-04T12:38:48.236Z,4.35
2022-12-04T12:40:00.070Z,5.10
2022-12-04T12:41:06.638Z,5.35
2022-12-04T12:42:16.377Z,4.15
2022-12-04T12:43:25.115Z,6.30
2022-12-04T12:44:35.823Z,5.53
2022-12-04T12:45:47.081Z,8.20
2022-12-04T12:46:52.199Z,9.40
2022-12-04T12:48:01.488Z,4.53
2022-12-04T12:49:14.371Z,5.90
2022-12-04T12:50:23.101Z,5.03
2022-12-04T12:51:34.616Z,6.80
2022-12-04T12:52:44.838Z,6.25
2022-12-04T12:53:53.666Z,8.23
2022-12-04T12:55:03.035Z,5.63
2022-12-04T12:56:12.939Z,5.43
2022-12-04T12:57:20.285Z,6.50
2022-12-04T12:58:33.186Z,8.85
2022-12-04T12:59:39.288Z,4.47
2022-12-04T13:00:47.090Z,3.90
2022-12-04T13:02:00.686Z,4.18
2022-12-04T13:03:13.448Z,8.88
2022-12-04T13:04:22.825Z,4.47
2022-12-04T13:05:30.315Z,4.68
2022-12-04T13:06:37.199Z,4.13
2022-12-04T13:07:48.981Z,4.88
2022-12-04T13:09:01.284Z,4.20
2022-12-04T13:10:15.788Z,4.78
2022-12-04T13:11:22.977Z,3.90
2022-12-04T13:12:26.678Z,6.25
2022-12-04T13:13:33.940Z,7.57
2022-12-04T13:14:36.613Z,7.57
2022-12-04T13:15:45.521Z,6.55
2022-12-04T13:16:50.503Z,7.05
2022-12-04T13:17:58.646Z,5.35
2022-12-04T13:19:09.612Z,5.90
2022-12-04T13:20:19.062Z,3.60
2022-12-04T13:21:33.213Z,3.78
2022-12-04T13:22:44.985Z,3.42
2022-12-04T13:24:03.212Z,3.97
2022-12-04T13:25:25.475Z,3.60
2022-12-04T13:26:43.579Z,3.88
2022-12-04T13:28:02.805Z,8.07
2022-12-04T13:29:14.447Z,4.40
2022-12-04T13:30:21.008Z,5.15
2022-12-04T13:31:32.834Z,5.75
2022-12-04T13:33:03.315Z,8.33
2022-12-04T13:34:39.145Z,6.80
2022-12-04T13:35:54.872Z,6.80
2022-12-04T13:37:13.545Z,6.88
2022-12-04T13:38:25.877Z,5.53
2022-12-04T13:40:29.119Z,6.07
2022-12-04T13:41:36.700Z,5.57
2022-12-04T13:42:39.121Z,6.15
2022-12-04T13:43:48.155Z,6.10
2022-12-04T13:44:56.433Z,5.85
2022-12-04T13:46:03.287Z,4.40
2022-12-04T13:47:09.339Z,4.70
2022-12-04T13:48:11.547Z,6.22
2022-12-04T13:49:26.488Z,6.28
2022-12-04T13:50:31.578Z,4.68
2022-12-04T13:51:37.946Z,4.97
2022-12-04T13:52:41.856Z,5.35
2022-12-04T13:53:45.794Z,4.68
2022-12-04T13:54:59.120Z,5.85
2022-12-04T13:56:07.685Z,3.95
2022-12-04T13:57:22.196Z,8.77
2022-12-04T13:58:28.963Z,5.93
2022-12-04T13:59:37.733Z,6.40
2022-12-04T14:00:42.667Z,4.25
2022-12-04T14:01:47.379Z,4.75
2022-12-04T14:02:53.347Z,7.32
2022-12-04T14:03:57.542Z,7.15
2022-12-04T14:05:03.762Z,4.18
2022-12-04T14:06:24.127Z,5.47
2022-12-04T14:07:31.786Z,4.22
2022-12-04T14:08:40.799Z,4.17
2022-12-04T14:09:53.352Z,5.40
2022-12-04T14:11:02.997Z,4.43
2022-12-04T14:12:11.723Z,5.05
2022-12-04T14:13:21.139Z,4.03
2022-12-04T14:14:29.295Z,5.13
2022-12-04T14:15:33.446Z,5.03
2022-12-04T14:16:41.736Z,7.97
2022-12-04T14:17:57.413Z,9.77
2022-12-04T14:19:02.497Z,6.00
2022-12-04T14:20:09.135Z,6.87
2022-12-04T14:21:11.272Z,7.28
2022-12-04T14:22:28.097Z,7.10
2022-12-04T14:23:36.405Z,7.10
2022-12-04T14:24:40.890Z,4.78
2022-12-04T14:25:44.228Z,7.18
2022-12-04T14:28:26.746Z,6.13
2022-12-04T14:29:50.869Z,7.43
2022-12-04T14:31:11.263Z,7.68
2022-12-04T14:32:20.120Z,9.40
2022-12-04T14:33:24.470Z,7.10
2022-12-04T14:34:31.904Z,6.35
2022-12-04T14:35:34.516Z,5.05
2022-12-04T14:36:43.415Z,8.30
2022-12-04T14:37:51.264Z,7.30
2022-12-04T14:39:04.178Z,6.40
2022-12-04T14:40:18.152Z,5.95
2022-12-04T14:41:26.272Z,6.78
2022-12-04T14:42:37.608Z,8.57
2022-12-04T14:43:48.419Z,9.17
2022-12-04T14:44:55.152Z,7.00
2022-12-04T14:46:04.878Z,8.43
2022-12-04T14:47:23.336Z,6.70
2022-12-04T14:48:37.169Z,7.72
2022-12-04T14:49:51.983Z,8.52
2022-12-04T14:51:04.216Z,10.30